Have a Safe July 4th! 

Flight Track Log - Related Links

Times and Time Zones

All times are in EDT time to prevent confusion due to time zone crossing. See the N102RM flight status page for this flight to view local times or setup timezone preferences in your user account.

Time Position Orientation Groundspeed Altitude Reporting Facility
EDT Latitude Longitude Course Direction KTS MPH feet Rate Location/Type
Tue 02:46:16 PM 38.5500 -90.2000 278° West 91 105 2,000  Level Gateway (St. Louis) TRACON
Tue 02:47:11 PM 38.5350 -90.2203 227° Southwest 94 108 2,700 769 Climbing Kansas City Center
Tue 02:48:13 PM 38.5325 -90.2578 265° West 104 120 3,500 780 Climbing Kansas City Center
Tue 02:49:14 PM 38.5347 -90.2956 274° West 105 121 4,300 537 Climbing Kansas City Center
Tue 02:50:16 PM 38.5411 -90.3372 281° West 111 128 4,600 194 Climbing Kansas City Center
Tue 02:51:00 PM 38.6035 -90.4574 278° West  Level Estimated
Tue 02:51:18 PM 38.5469 -90.3872 278° West 128 147 4,700  Level Kansas City Center
Tue 02:52:20 PM 38.5525 -90.4311 279° West 129 148 5,400 726 Climbing Kansas City Center
Tue 02:53:22 PM 38.5639 -90.4803 287° West 121 139 6,200 581 Climbing Kansas City Center
Tue 02:54:24 PM 38.5689 -90.5236 278° West 122 140 6,600 194 Climbing Kansas City Center
Tue 02:55:26 PM 38.5742 -90.5711 278° West 131 151 6,600  Level Kansas City Center
Tue 02:56:28 PM 38.5803 -90.6219 279° West 141 162 6,600  Level Kansas City Center
Tue 02:57:30 PM 38.5850 -90.6731 277° West 144 166 6,600  Level Kansas City Center
Tue 02:58:32 PM 38.5897 -90.7244 277° West 145 167 6,600  Level Kansas City Center
Tue 02:59:34 PM 38.5950 -90.7744 278° West 143 165 6,600  Level Kansas City Center
Tue 03:00:36 PM 38.6011 -90.8356 277° West 145 167 6,600 -48 Level Kansas City Center
Tue 03:01:38 PM 38.6069 -90.8883 278° West 147 169 6,500  Descending Kansas City Center
Tue 03:02:40 PM 38.6128 -90.9400 278° West 148 170 6,600 48 Climbing Kansas City Center
Tue 03:03:42 PM 38.6192 -90.9889 280° West 143 165 6,600  Level Kansas City Center
Tue 03:04:44 PM 38.6247 -91.0392 278° West 143 165 6,600  Level Kansas City Center
Tue 03:05:47 PM 38.6300 -91.0900 278° West 144 166 6,600  Level Kansas City Center
Tue 03:06:49 PM 38.6378 -91.1514 279° West 145 167 6,600 -48 Level Kansas City Center
Tue 03:07:51 PM 38.6433 -91.2033 278° West 147 169 6,500  Descending Kansas City Center
Tue 03:08:53 PM 38.6486 -91.2547 278° West 146 168 6,600 48 Climbing Kansas City Center
Tue 03:09:55 PM 38.6536 -91.3056 277° West 145 167 6,600  Level Kansas City Center
Tue 03:10:57 PM 38.6614 -91.3567 281° West 146 168 6,600  Level Kansas City Center
Tue 03:11:59 PM 38.6681 -91.4150 278° West 146 168 6,600  Level Kansas City Center
Tue 03:13:01 PM 38.6739 -91.4664 278° West 146 168 6,600 -48 Level Kansas City Center
Tue 03:14:03 PM 38.6800 -91.5169 279° West 145 167 6,500 -48 Descending Kansas City Center
Tue 03:15:05 PM 38.6856 -91.5681 278° West 145 167 6,500  Level Kansas City Center
Tue 03:16:07 PM 38.6933 -91.6294 279° West 145 167 6,500 48 Level Kansas City Center
Tue 03:17:09 PM 38.6997 -91.6789 279° West 143 165 6,600 48 Climbing Kansas City Center
Tue 03:18:11 PM 38.7028 -91.7286 275° West 141 162 6,600  Level Kansas City Center
Tue 03:19:13 PM 38.7075 -91.7792 277° West 142 163 6,600  Level Kansas City Center
Tue 03:20:15 PM 38.7128 -91.8297 278° West 143 165 6,600  Level Kansas City Center
Tue 03:21:17 PM 38.7172 -91.8803 276° West 143 165 6,600  Level Kansas City Center
Tue 03:22:19 PM 38.7219 -91.9294 277° West 142 163 6,600  Level Kansas City Center
Tue 03:23:21 PM 38.7283 -91.9900 278° West 143 165 6,600  Level Kansas City Center
Tue 03:24:23 PM 38.7350 -92.0400 280° West 142 163 6,600 -48 Level Kansas City Center
Tue 03:25:25 PM 38.7403 -92.0908 278° West 143 165 6,500 -48 Descending Kansas City Center
Tue 03:26:27 PM 38.7467 -92.1414 279° West 143 165 6,500 48 Level Kansas City Center
Tue 03:27:29 PM 38.7533 -92.1914 280° West 142 163 6,600 48 Climbing Kansas City Center
Tue 03:28:32 PM 38.7569 -92.2422 275° West 143 165 6,600 -48 Level Kansas City Center
Tue 03:29:34 PM 38.7633 -92.3011 278° West 141 162 6,500  Descending Kansas City Center
Tue 03:30:36 PM 38.7686 -92.3508 278° West 141 162 6,600 48 Climbing Kansas City Center
Tue 03:31:38 PM 38.7736 -92.4008 277° West 142 163 6,600  Level Kansas City Center
Tue 03:32:40 PM 38.7781 -92.4522 276° West 144 166 6,600  Level Kansas City Center
Tue 03:33:42 PM 38.7836 -92.5017 278° West 143 165 6,600  Level Kansas City Center
Tue 03:34:44 PM 38.7881 -92.5508 277° West 141 162 6,600  Level Kansas City Center
Tue 03:35:46 PM 38.7950 -92.6108 278° West 141 162 6,600  Level Kansas City Center
Tue 03:36:48 PM 38.7997 -92.6614 277° West 142 163 6,600  Level Kansas City Center
Tue 03:37:50 PM 38.8064 -92.7122 280° West 144 166 6,600  Level Kansas City Center
Tue 03:38:52 PM 38.8128 -92.7614 279° West 142 163 6,600  Level Kansas City Center
Tue 03:39:54 PM 38.8169 -92.8150 276° West 145 167 6,600  Level Kansas City Center
Tue 03:40:56 PM 38.8206 -92.8656 275° West 145 167 6,600  Level Kansas City Center
Tue 03:41:58 PM 38.8253 -92.9258 276° West 144 166 6,600  Level Kansas City Center
Tue 03:43:00 PM 38.8306 -92.9750 278° West 142 163 6,600  Level Kansas City Center
Tue 03:44:02 PM 38.8356 -93.0244 277° West 140 161 6,600 -48 Level Kansas City Center
Tue 03:45:04 PM 38.8422 -93.0717 280° West 138 159 6,500 -48 Descending Kansas City Center
Tue 03:46:06 PM 38.8475 -93.1217 278° West 141 162 6,500  Level Kansas City Center
Tue 03:47:08 PM 38.8522 -93.1711 277° West 140 161 6,500  Level Kansas City Center
Tue 03:48:10 PM 38.8572 -93.2206 277° West 140 161 6,500  Level Kansas City Center
Tue 03:49:12 PM 38.8628 -93.2814 277° West 142 163 6,500  Level Kansas City Center
Tue 03:50:14 PM 38.8683 -93.3303 278° West 140 161 6,500  Level Kansas City Center
Tue 03:51:16 PM 38.8731 -93.3800 277° West 140 161 6,500  Level Kansas City Center
Tue 03:52:18 PM 38.8778 -93.4300 277° West 140 161 6,500  Level Kansas City Center
Tue 03:53:20 PM 38.8814 -93.4808 275° West 141 162 6,500  Level Kansas City Center
Tue 03:54:23 PM 38.8867 -93.5311 278° West 142 163 6,500  Level Kansas City Center
Tue 03:55:25 PM 38.8925 -93.5906 277° West 140 161 6,500  Level Kansas City Center
Tue 03:56:27 PM 38.8981 -93.6383 279° West 136 157 6,500  Level Kansas City Center
Tue 03:57:29 PM 38.9014 -93.6889 275° West 141 162 6,500 -48 Level Kansas City Center
Tue 03:58:31 PM 38.9053 -93.7383 276° West 139 160 6,400 -48 Descending Kansas City Center
Tue 03:59:34 PM 38.9128 -93.7886 281° West 136 157 6,400 48 Level Kansas City Center
Tue 04:00:36 PM 38.9167 -93.8344 276° West 134 154 6,500 97 Climbing Kansas City Center
Tue 04:02:00 PM 38.9167 -93.9025 270° West  Level FlightAware Approximate

Login

Don't have an account? Register now (free) for customized features, flight alerts, and more!